createdAt,value
2023-05-15T00:00:59.910Z,100700.92
2023-05-15T00:03:39.669Z,100697.55
2023-05-15T00:06:16.420Z,100700.42
2023-05-15T00:08:54.104Z,100695.08
2023-05-15T00:11:30.701Z,100691.36
2023-05-15T00:14:08.599Z,100688.72
2023-05-15T00:16:45.994Z,100686.77
2023-05-15T00:19:25.472Z,100681.59
2023-05-15T00:22:02.294Z,100681.64
2023-05-15T00:24:42.703Z,100674.89
2023-05-15T00:27:19.840Z,100669.20
2023-05-15T00:29:55.474Z,100665.44
2023-05-15T00:32:33.200Z,100665.10
2023-05-15T00:35:11.325Z,100662.67
2023-05-15T00:37:47.894Z,100658.48
2023-05-15T00:40:28.717Z,100660.63
2023-05-15T00:43:05.310Z,100657.96
2023-05-15T00:45:41.334Z,100656.20
2023-05-15T00:48:20.083Z,100651.64
2023-05-15T00:51:00.268Z,100650.59
2023-05-15T00:53:35.796Z,100647.20
2023-05-15T00:56:13.225Z,100645.82
2023-05-15T00:58:52.957Z,100642.96
2023-05-15T01:01:28.253Z,100636.35
2023-05-15T01:04:06.598Z,100635.31
2023-05-15T01:06:44.298Z,100631.92
2023-05-15T01:09:21.823Z,100629.77
2023-05-15T01:12:03.725Z,100624.80
2023-05-15T01:14:41.130Z,100624.84
2023-05-15T01:17:16.701Z,100624.80
2023-05-15T01:19:56.645Z,100624.45
2023-05-15T01:22:50.383Z,100622.27
2023-05-15T01:25:56.602Z,100618.30
2023-05-15T01:28:40.745Z,100617.70
2023-05-15T01:31:23.431Z,100612.74
2023-05-15T01:34:04.457Z,100608.46
2023-05-15T01:36:49.255Z,100607.02
2023-05-15T01:39:31.530Z,100605.45
2023-05-15T01:42:12.168Z,100603.93
2023-05-15T01:44:55.113Z,100596.23
2023-05-15T01:47:36.557Z,100589.41
2023-05-15T01:50:17.588Z,100595.11
2023-05-15T01:52:55.783Z,100597.99
2023-05-15T01:55:33.487Z,100603.67
2023-05-15T01:58:21.648Z,100595.45
2023-05-15T02:01:00.313Z,100584.39
2023-05-15T02:03:41.092Z,100574.33
2023-05-15T02:06:21.455Z,100582.44
2023-05-15T02:08:57.163Z,100580.98
2023-05-15T02:11:33.233Z,100576.83
2023-05-15T02:14:11.454Z,100569.86
2023-05-15T02:16:51.994Z,100568.51
2023-05-15T02:19:28.151Z,100569.88
2023-05-15T02:22:06.716Z,100560.73
2023-05-15T02:24:44.903Z,100555.25
2023-05-15T02:27:27.254Z,100557.65
2023-05-15T02:30:18.928Z,100548.45
2023-05-15T02:33:10.569Z,100544.27
2023-05-15T02:35:55.509Z,100540.96
2023-05-15T02:38:36.651Z,100538.48
2023-05-15T02:41:15.383Z,100534.13
2023-05-15T02:44:02.620Z,100530.95
2023-05-15T02:46:42.315Z,100518.70
2023-05-15T02:49:19.179Z,100512.98
2023-05-15T02:51:55.432Z,100514.10
2023-05-15T02:54:32.448Z,100505.39
2023-05-15T02:57:08.926Z,100504.86
2023-05-15T02:59:44.945Z,100507.35
2023-05-15T03:02:21.476Z,100507.71
2023-05-15T03:04:57.927Z,100499.02
2023-05-15T03:07:32.552Z,100497.60
2023-05-15T03:10:10.256Z,100495.40
2023-05-15T03:12:44.697Z,100491.12
2023-05-15T03:15:21.656Z,100483.14
2023-05-15T03:17:57.750Z,100477.40
2023-05-15T03:20:37.334Z,100479.14
2023-05-15T03:23:17.019Z,100488.96
2023-05-15T03:25:53.363Z,100490.15
2023-05-15T03:28:29.254Z,100481.21
2023-05-15T03:31:06.493Z,100486.37
2023-05-15T03:33:46.533Z,100483.66
2023-05-15T03:36:23.591Z,100475.79
2023-05-15T03:38:59.540Z,100476.95
2023-05-15T03:41:35.650Z,100468.80
2023-05-15T03:44:10.854Z,100465.52
2023-05-15T03:46:50.923Z,100463.16
2023-05-15T03:49:26.149Z,100463.85
2023-05-15T03:52:04.405Z,100463.42
2023-05-15T03:54:41.530Z,100463.46
2023-05-15T03:57:18.753Z,100456.91
2023-05-15T03:59:56.455Z,100454.95
2023-05-15T04:02:33.852Z,100451.25
2023-05-15T04:05:14.078Z,100455.29
2023-05-15T04:07:48.678Z,100449.92
2023-05-15T04:10:24.965Z,100449.90
2023-05-15T04:13:04.392Z,100443.00
2023-05-15T04:15:41.395Z,100441.91
2023-05-15T04:18:18.630Z,100438.73
2023-05-15T04:20:56.507Z,100438.17
2023-05-15T04:23:32.248Z,100435.83
2023-05-15T04:26:06.927Z,100434.59
2023-05-15T04:28:56.166Z,100429.77
2023-05-15T04:31:41.098Z,100434.23
2023-05-15T04:34:16.045Z,100440.77
2023-05-15T04:36:55.116Z,100435.45
2023-05-15T04:39:32.013Z,100436.70
2023-05-15T04:42:12.322Z,100444.84
2023-05-15T04:44:49.577Z,100449.59
2023-05-15T04:47:26.954Z,100451.55
2023-05-15T04:50:03.908Z,100442.02
2023-05-15T04:52:38.950Z,100436.08
2023-05-15T04:55:15.876Z,100438.39
2023-05-15T04:57:53.473Z,100434.75
2023-05-15T05:00:31.577Z,100440.40
2023-05-15T05:03:10.201Z,100443.23
2023-05-15T05:05:46.640Z,100455.95
2023-05-15T05:08:21.430Z,100465.36
2023-05-15T05:11:01.730Z,100458.92
2023-05-15T05:13:38.377Z,100456.85
2023-05-15T05:16:14.686Z,100459.79
2023-05-15T05:18:52.719Z,100461.83
2023-05-15T05:21:29.350Z,100464.85
2023-05-15T05:24:06.165Z,100461.40
2023-05-15T05:26:41.627Z,100450.09
2023-05-15T05:29:19.152Z,100452.30
2023-05-15T05:31:57.194Z,100451.62
2023-05-15T05:34:34.366Z,100456.38
2023-05-15T05:37:13.442Z,100459.23
2023-05-15T05:39:47.971Z,100458.75
2023-05-15T05:42:34.728Z,100468.16
2023-05-15T05:45:21.045Z,100466.66
2023-05-15T05:47:59.384Z,100466.80
2023-05-15T05:50:36.817Z,100472.56
2023-05-15T05:53:14.290Z,100468.61
2023-05-15T05:55:50.604Z,100470.16
2023-05-15T05:58:27.571Z,100468.38
2023-05-15T06:01:06.722Z,100465.34
2023-05-15T06:03:45.370Z,100465.54
2023-05-15T06:06:22.750Z,100468.50
2023-05-15T06:09:03.122Z,100468.84
2023-05-15T06:11:39.928Z,100469.31
2023-05-15T06:14:18.193Z,100464.50
2023-05-15T06:16:59.334Z,100467.79
2023-05-15T06:19:36.529Z,100465.52
2023-05-15T06:22:13.100Z,100457.91
2023-05-15T06:24:52.626Z,100468.69
2023-05-15T06:27:35.373Z,100448.73
2023-05-15T06:30:23.647Z,100454.70
2023-05-15T06:33:07.013Z,100439.96
2023-05-15T06:35:50.187Z,100436.77
2023-05-15T06:38:48.469Z,100424.83
2023-05-15T06:41:24.848Z,100418.79
2023-05-15T06:44:02.184Z,100412.46
2023-05-15T06:46:37.985Z,100405.98
2023-05-15T06:49:19.288Z,100400.67
2023-05-15T06:52:03.615Z,100393.77
2023-05-15T06:54:43.410Z,100387.99
2023-05-15T06:57:20.383Z,100383.98
2023-05-15T07:00:03.963Z,100377.13
2023-05-15T07:02:44.203Z,100369.91
2023-05-15T07:05:25.223Z,100363.08
2023-05-15T07:08:04.510Z,100358.70
2023-05-15T07:10:43.623Z,100358.64
2023-05-15T07:13:23.352Z,100353.80
2023-05-15T07:16:05.664Z,100348.62
2023-05-15T07:18:44.667Z,100347.89
2023-05-15T07:21:22.115Z,100342.90
2023-05-15T07:23:58.659Z,100334.96
2023-05-15T07:26:59.152Z,100329.84
2023-05-15T07:29:38.744Z,100329.50
2023-05-15T07:32:21.513Z,100325.79
2023-05-15T07:35:00.622Z,100319.10
2023-05-15T07:37:40.498Z,100315.39
2023-05-15T07:40:25.915Z,100312.31
2023-05-15T07:43:02.512Z,100304.27
2023-05-15T07:45:38.795Z,100298.89
2023-05-15T07:48:22.062Z,100296.52
2023-05-15T07:50:59.629Z,100291.95
2023-05-15T07:53:39.971Z,100289.73
2023-05-15T07:56:17.867Z,100284.27
2023-05-15T07:58:58.056Z,100287.34
2023-05-15T08:01:37.976Z,100280.89
2023-05-15T08:04:18.171Z,100273.48
2023-05-15T08:06:57.247Z,100267.29
2023-05-15T08:09:38.766Z,100266.83
2023-05-15T08:12:26.839Z,100261.66
2023-05-15T08:15:09.984Z,100259.00
2023-05-15T08:17:48.743Z,100258.91
2023-05-15T08:20:25.798Z,100261.64
2023-05-15T08:23:09.441Z,100248.02
2023-05-15T08:25:44.612Z,100258.79
2023-05-15T08:28:23.765Z,100257.95
2023-05-15T08:31:01.603Z,100248.74
2023-05-15T08:33:38.304Z,100241.98
2023-05-15T08:36:22.995Z,100243.20
2023-05-15T08:39:00.701Z,100235.25
2023-05-15T08:41:51.042Z,100233.72
2023-05-15T08:44:33.291Z,100228.99
2023-05-15T08:47:12.775Z,100232.16
2023-05-15T08:50:06.008Z,100229.77
2023-05-15T08:52:44.684Z,100232.61
2023-05-15T08:55:26.586Z,100236.83
2023-05-15T08:58:07.687Z,100235.91
2023-05-15T09:00:45.674Z,100235.59
2023-05-15T09:03:27.028Z,100238.17
2023-05-15T09:06:03.849Z,100236.71
2023-05-15T09:08:40.900Z,100230.36
2023-05-15T09:11:24.150Z,100227.59
2023-05-15T09:14:01.624Z,100227.11
2023-05-15T09:16:40.758Z,100222.48
2023-05-15T09:19:16.944Z,100219.41
2023-05-15T09:22:01.186Z,100214.44
2023-05-15T09:24:45.986Z,100213.55
2023-05-15T09:27:22.348Z,100212.80
2023-05-15T09:30:12.499Z,100208.27
2023-05-15T09:32:55.518Z,100202.74
2023-05-15T09:35:34.559Z,100204.29
2023-05-15T09:38:16.801Z,100199.79
2023-05-15T09:41:13.934Z,100202.02
2023-05-15T09:43:54.903Z,100197.96
2023-05-15T09:46:39.906Z,100196.19
2023-05-15T09:49:15.787Z,100199.39
2023-05-15T09:52:05.498Z,100196.30
2023-05-15T09:54:47.503Z,100194.98
2023-05-15T09:57:34.535Z,100194.46
2023-05-15T10:00:32.075Z,100191.79
2023-05-15T10:03:12.561Z,100192.96
2023-05-15T10:05:47.945Z,100184.94
2023-05-15T10:08:30.034Z,100185.63
2023-05-15T10:11:14.783Z,100183.48
2023-05-15T10:14:08.214Z,100182.80
2023-05-15T10:16:47.983Z,100180.69
2023-05-15T10:19:30.319Z,100179.87
2023-05-15T10:22:14.575Z,100178.59
2023-05-15T10:25:00.368Z,100177.85
2023-05-15T10:27:40.887Z,100169.80
2023-05-15T10:30:20.449Z,100173.30
2023-05-15T10:32:59.319Z,100169.82
2023-05-15T10:35:34.769Z,100170.72
2023-05-15T10:38:13.026Z,100169.42
2023-05-15T10:40:48.799Z,100168.63
2023-05-15T10:43:37.238Z,100168.38
2023-05-15T10:46:12.210Z,100166.55
2023-05-15T10:48:49.811Z,100166.09
2023-05-15T10:51:31.617Z,100163.34
2023-05-15T10:54:11.462Z,100164.17
2023-05-15T10:56:52.479Z,100164.02
2023-05-15T10:59:36.444Z,100162.58
2023-05-15T11:02:29.738Z,100164.16
2023-05-15T11:05:13.034Z,100159.23
2023-05-15T11:08:29.886Z,100156.73
2023-05-15T11:11:08.235Z,100152.18
2023-05-15T11:14:16.878Z,100153.66
2023-05-15T11:17:05.934Z,100146.71
2023-05-15T11:19:58.774Z,100141.41
2023-05-15T11:22:37.158Z,100138.41
2023-05-15T11:25:17.898Z,100134.23
2023-05-15T11:27:59.871Z,100124.79
2023-05-15T11:30:44.542Z,100128.50
2023-05-15T11:33:21.142Z,100120.76
2023-05-15T11:36:03.072Z,100118.48
2023-05-15T11:38:44.101Z,100114.51
2023-05-15T11:41:28.176Z,100109.88
2023-05-15T11:44:05.920Z,100107.27
2023-05-15T11:46:40.722Z,100099.04
2023-05-15T11:49:16.976Z,100102.14
2023-05-15T11:51:54.944Z,100100.89
2023-05-15T11:54:30.207Z,100099.83
2023-05-15T11:57:09.083Z,100094.02
2023-05-15T11:59:47.001Z,100096.78
2023-05-15T12:02:25.527Z,100095.61
2023-05-15T12:05:00.142Z,100093.24
2023-05-15T12:07:38.602Z,100094.09
2023-05-15T12:10:16.034Z,100088.49
2023-05-15T12:12:51.325Z,100084.02
2023-05-15T12:15:28.515Z,100083.35
2023-05-15T12:18:09.995Z,100077.98
2023-05-15T12:20:50.501Z,100076.64
2023-05-15T12:23:27.348Z,100071.99
2023-05-15T12:26:05.221Z,100069.77
2023-05-15T12:28:41.061Z,100064.63
2023-05-15T12:31:18.233Z,100063.59
2023-05-15T12:33:52.991Z,100062.85
2023-05-15T12:36:30.083Z,100057.17
2023-05-15T12:39:10.986Z,100053.21
2023-05-15T12:41:47.796Z,100050.17
2023-05-15T12:44:27.861Z,100046.39
2023-05-15T12:47:07.730Z,100041.35
2023-05-15T12:49:44.055Z,100037.37
2023-05-15T12:52:20.950Z,100035.52
2023-05-15T12:54:57.644Z,100028.48
2023-05-15T12:57:36.275Z,100028.44
2023-05-15T13:00:16.746Z,100021.59
2023-05-15T13:02:54.686Z,100021.10
2023-05-15T13:05:36.968Z,100013.90
2023-05-15T13:08:19.718Z,100008.80
2023-05-15T13:11:01.604Z,100006.35
2023-05-15T13:13:51.935Z,99996.09
2023-05-15T13:16:39.352Z,99991.48
2023-05-15T13:19:16.275Z,99989.96
2023-05-15T13:21:56.859Z,99984.13
2023-05-15T13:24:32.987Z,99982.35
2023-05-15T13:27:07.974Z,99980.12
2023-05-15T13:29:42.762Z,99978.39
2023-05-15T13:32:18.158Z,99976.54
2023-05-15T13:34:59.471Z,99975.48
2023-05-15T13:37:35.730Z,99972.29
2023-05-15T13:40:17.320Z,99971.16
2023-05-15T13:42:51.721Z,99970.77
2023-05-15T13:45:27.648Z,99967.89
2023-05-15T13:48:04.834Z,99967.17
2023-05-15T13:50:44.561Z,99961.10
2023-05-15T13:53:20.123Z,99959.48
2023-05-15T13:56:05.091Z,99958.58
2023-05-15T13:58:43.066Z,99957.13
2023-05-15T14:01:18.932Z,99955.00
2023-05-15T14:04:13.408Z,99954.96
2023-05-15T14:06:49.160Z,99955.06
2023-05-15T14:09:28.539Z,99951.89
2023-05-15T14:12:02.469Z,99951.35
2023-05-15T14:14:37.575Z,99949.45
2023-05-15T14:17:14.091Z,99948.01
2023-05-15T14:19:52.522Z,99946.56
2023-05-15T14:22:27.851Z,99947.19
2023-05-15T14:25:04.502Z,99947.36
2023-05-15T14:27:42.694Z,99944.27
2023-05-15T14:30:20.811Z,99945.46
2023-05-15T14:33:03.062Z,99944.82
2023-05-15T14:35:41.153Z,99939.92
2023-05-15T14:38:26.101Z,99936.80
2023-05-15T14:41:04.207Z,99934.41
2023-05-15T14:43:44.616Z,99937.98
2023-05-15T14:46:26.400Z,99934.98
2023-05-15T14:49:06.388Z,99935.05
2023-05-15T14:51:43.914Z,99932.85
2023-05-15T14:54:21.151Z,99929.38
2023-05-15T14:56:57.911Z,99928.52
2023-05-15T14:59:42.753Z,99926.65
2023-05-15T15:02:21.096Z,99925.84
2023-05-15T15:04:58.847Z,99924.85
2023-05-15T15:07:51.690Z,99921.75
2023-05-15T15:10:27.372Z,99919.28
2023-05-15T15:13:06.444Z,99911.84
2023-05-15T15:15:44.822Z,99907.15
2023-05-15T15:18:22.934Z,99903.95
2023-05-15T15:21:00.486Z,99902.16
2023-05-15T15:23:36.805Z,99899.19
2023-05-15T15:26:13.678Z,99899.09
2023-05-15T15:28:48.945Z,99896.59
2023-05-15T15:31:24.217Z,99892.08
2023-05-15T15:34:04.428Z,99889.79
2023-05-15T15:36:42.054Z,99891.27
2023-05-15T15:39:17.485Z,99892.08
2023-05-15T15:41:54.561Z,99890.35
2023-05-15T15:44:29.166Z,99890.71
2023-05-15T15:47:06.931Z,99888.85
2023-05-15T15:49:44.335Z,99888.21
2023-05-15T15:52:20.286Z,99882.23
2023-05-15T15:54:56.777Z,99877.45
2023-05-15T15:57:33.447Z,99875.91
2023-05-15T16:00:12.464Z,99870.67
2023-05-15T16:02:49.472Z,99870.34
2023-05-15T16:05:24.171Z,99864.16
2023-05-15T16:08:01.685Z,99858.11
2023-05-15T16:10:37.138Z,99858.46
2023-05-15T16:13:12.011Z,99854.23
2023-05-15T16:15:47.441Z,99850.52
2023-05-15T16:18:23.421Z,99852.80
2023-05-15T16:20:59.280Z,99849.04
2023-05-15T16:23:39.376Z,99851.08
2023-05-15T16:26:15.197Z,99852.92
2023-05-15T16:28:50.329Z,99847.39
2023-05-15T16:31:26.788Z,99845.34
2023-05-15T16:34:04.713Z,99842.70
2023-05-15T16:36:43.498Z,99841.27
2023-05-15T16:39:19.292Z,99837.02
2023-05-15T16:41:59.516Z,99832.59
2023-05-15T16:44:35.399Z,99829.04
2023-05-15T16:47:09.101Z,99824.48
2023-05-15T16:49:45.336Z,99825.95
2023-05-15T16:52:21.949Z,99821.73
2023-05-15T16:54:57.489Z,99822.50
2023-05-15T16:57:32.332Z,99822.55
2023-05-15T17:00:13.052Z,99818.93
2023-05-15T17:02:51.449Z,99815.32
2023-05-15T17:05:26.425Z,99818.64
2023-05-15T17:08:02.885Z,99818.73
2023-05-15T17:10:39.140Z,99817.08
2023-05-15T17:13:14.329Z,99824.31
2023-05-15T17:15:50.901Z,99822.33
2023-05-15T17:18:27.239Z,99824.55
2023-05-15T17:21:03.428Z,99829.86
2023-05-15T17:23:38.561Z,99830.08
2023-05-15T17:26:14.292Z,99829.94
2023-05-15T17:28:50.328Z,99836.71
2023-05-15T17:31:27.467Z,99831.42
2023-05-15T17:34:02.332Z,99831.11
2023-05-15T17:36:37.151Z,99830.01
2023-05-15T17:39:12.941Z,99832.33
2023-05-15T17:41:51.060Z,99835.21
2023-05-15T17:44:29.970Z,99838.40
2023-05-15T17:47:05.882Z,99839.23
2023-05-15T17:49:39.772Z,99834.27
2023-05-15T17:52:14.283Z,99834.12
2023-05-15T17:54:48.335Z,99835.14
2023-05-15T17:57:23.332Z,99832.80
2023-05-15T17:59:58.729Z,99829.05
2023-05-15T18:02:33.692Z,99832.17
2023-05-15T18:05:12.247Z,99834.88
2023-05-15T18:07:50.378Z,99836.36
2023-05-15T18:10:28.460Z,99835.29
2023-05-15T18:13:05.528Z,99832.79
2023-05-15T18:15:51.804Z,99830.19
2023-05-15T18:18:29.712Z,99829.21
2023-05-15T18:21:09.833Z,99836.20
2023-05-15T18:24:10.849Z,99840.90
2023-05-15T18:26:52.400Z,99848.70
2023-05-15T18:29:34.641Z,99858.32
2023-05-15T18:32:15.900Z,99860.16
2023-05-15T18:34:55.937Z,99863.78
2023-05-15T18:37:55.746Z,99869.81
2023-05-15T18:40:35.088Z,99867.93
2023-05-15T18:43:12.054Z,99873.89
2023-05-15T18:45:49.751Z,99870.79
2023-05-15T18:48:25.435Z,99871.29
2023-05-15T18:51:00.735Z,99869.28
2023-05-15T18:53:39.778Z,99869.23
2023-05-15T18:56:16.445Z,99867.24
2023-05-15T18:58:53.229Z,99865.58
2023-05-15T19:01:46.569Z,99863.89
2023-05-15T19:04:23.537Z,99864.63
2023-05-15T19:07:18.188Z,99867.34
2023-05-15T19:09:57.415Z,99865.80
2023-05-15T19:12:41.996Z,99867.02
2023-05-15T19:15:20.482Z,99868.20
2023-05-15T19:17:57.645Z,99871.19
2023-05-15T19:20:37.067Z,99868.47
2023-05-15T19:23:16.288Z,99866.14
2023-05-15T19:25:54.805Z,99861.15
2023-05-15T19:28:33.435Z,99863.63
2023-05-15T19:31:17.087Z,99858.11
2023-05-15T19:34:09.036Z,99856.61
2023-05-15T19:36:50.321Z,99859.43
2023-05-15T19:39:24.302Z,99860.92
2023-05-15T19:42:03.581Z,99863.59
2023-05-15T19:44:40.051Z,99863.08
2023-05-15T19:47:15.772Z,99865.39
2023-05-15T19:49:51.144Z,99865.90
2023-05-15T19:52:27.335Z,99866.98
2023-05-15T19:55:19.151Z,99867.84
2023-05-15T19:57:58.966Z,99867.48
2023-05-15T20:00:34.744Z,99866.59
2023-05-15T20:03:11.536Z,99866.98
2023-05-15T20:05:52.754Z,99864.30
2023-05-15T20:08:27.853Z,99868.42
2023-05-15T20:11:08.480Z,99867.56
2023-05-15T20:13:43.225Z,99869.50
2023-05-15T20:16:22.530Z,99868.73
2023-05-15T20:19:00.387Z,99871.86
2023-05-15T20:21:44.794Z,99869.67
2023-05-15T20:24:20.620Z,99867.16
2023-05-15T20:26:56.056Z,99870.30
2023-05-15T20:29:32.997Z,99866.19
2023-05-15T20:32:09.547Z,99863.62
2023-05-15T20:34:48.526Z,99860.33
2023-05-15T20:37:28.077Z,99862.23
2023-05-15T20:40:13.509Z,99859.88
2023-05-15T20:42:48.228Z,99864.39
2023-05-15T20:45:25.732Z,99861.72
2023-05-15T20:48:02.223Z,99864.18
2023-05-15T20:50:38.822Z,99862.70
2023-05-15T20:53:18.045Z,99865.45
2023-05-15T20:55:55.060Z,99868.02
2023-05-15T20:58:30.510Z,99868.13
2023-05-15T21:01:14.754Z,99871.50
2023-05-15T21:03:58.854Z,99874.92
2023-05-15T21:06:34.846Z,99875.49
2023-05-15T21:09:12.538Z,99873.73
2023-05-15T21:11:49.741Z,99872.70
2023-05-15T21:14:25.983Z,99876.95
2023-05-15T21:17:09.704Z,99873.31
2023-05-15T21:19:48.649Z,99871.90
2023-05-15T21:22:25.015Z,99875.75
2023-05-15T21:25:00.655Z,99878.04
2023-05-15T21:27:38.123Z,99880.52
2023-05-15T21:30:17.418Z,99878.18
2023-05-15T21:32:54.008Z,99884.48
2023-05-15T21:35:29.752Z,99882.34
2023-05-15T21:38:04.099Z,99886.70
2023-05-15T21:40:40.101Z,99884.39
2023-05-15T21:43:15.714Z,99881.02
2023-05-15T21:45:52.959Z,99881.52
2023-05-15T21:48:32.197Z,99885.04
2023-05-15T21:51:09.872Z,99887.23
2023-05-15T21:53:44.189Z,99893.35
2023-05-15T21:56:19.378Z,99891.52
2023-05-15T21:59:01.177Z,99893.70
2023-05-15T22:01:38.300Z,99898.19
2023-05-15T22:04:14.082Z,99899.73
2023-05-15T22:07:08.347Z,99900.11
2023-05-15T22:09:53.313Z,99898.74
2023-05-15T22:12:28.993Z,99903.87
2023-05-15T22:15:06.480Z,99905.63
2023-05-15T22:17:44.701Z,99907.30
2023-05-15T22:20:20.381Z,99909.69
2023-05-15T22:22:57.278Z,99912.00
2023-05-15T22:25:36.817Z,99912.70
2023-05-15T22:28:15.023Z,99911.84
2023-05-15T22:30:59.087Z,99913.09
2023-05-15T22:33:39.437Z,99918.70
2023-05-15T22:36:15.059Z,99917.25
2023-05-15T22:38:57.607Z,99918.50
2023-05-15T22:41:33.349Z,99915.64
2023-05-15T22:44:08.530Z,99918.60
2023-05-15T22:46:47.321Z,99920.29
2023-05-15T22:49:25.843Z,99915.84
2023-05-15T22:52:00.736Z,99917.05
2023-05-15T22:54:36.639Z,99917.82
2023-05-15T22:57:13.679Z,99919.19
2023-05-15T22:59:53.099Z,99917.02
2023-05-15T23:02:36.844Z,99916.67
2023-05-15T23:05:15.500Z,99916.36
2023-05-15T23:07:51.703Z,99917.65
2023-05-15T23:10:28.050Z,99919.77
2023-05-15T23:13:04.965Z,99919.68
2023-05-15T23:15:41.362Z,99917.87
2023-05-15T23:18:18.427Z,99922.08
2023-05-15T23:20:59.132Z,99919.23
2023-05-15T23:23:41.396Z,99920.15
2023-05-15T23:26:19.112Z,99920.34
2023-05-15T23:28:56.773Z,99925.53
2023-05-15T23:31:41.464Z,99919.95
2023-05-15T23:34:17.583Z,99915.80
2023-05-15T23:36:54.263Z,99921.91
2023-05-15T23:39:30.467Z,99919.23
2023-05-15T23:42:04.642Z,99919.98
2023-05-15T23:44:42.393Z,99918.30
2023-05-15T23:47:18.034Z,99923.77
2023-05-15T23:49:56.421Z,99920.54
2023-05-15T23:52:32.351Z,99919.98
2023-05-15T23:55:15.405Z,99919.48
2023-05-15T23:57:51.088Z,99918.65
